createdAt,value
2023-08-11T00:01:51.729Z,68.39
2023-08-11T00:04:19.226Z,68.26
2023-08-11T00:06:45.903Z,69.05
2023-08-11T00:09:13.317Z,68.21
2023-08-11T00:11:39.668Z,68.43
2023-08-11T00:14:05.995Z,68.77
2023-08-11T00:16:32.405Z,68.15
2023-08-11T00:18:58.913Z,67.87
2023-08-11T00:21:25.246Z,68.26
2023-08-11T00:23:51.588Z,68.60
2023-08-11T00:26:17.990Z,68.11
2023-08-11T00:28:45.592Z,68.37
2023-08-11T00:31:12.639Z,67.69
2023-08-11T00:33:39.051Z,67.93
2023-08-11T00:36:05.663Z,68.24
2023-08-11T00:38:41.140Z,67.80
2023-08-11T00:41:08.217Z,67.57
2023-08-11T00:43:34.655Z,67.23
2023-08-11T00:46:14.347Z,67.30
2023-08-11T00:48:42.883Z,66.88
2023-08-11T00:51:14.627Z,67.36
2023-08-11T00:53:41.633Z,68.25
2023-08-11T00:56:08.500Z,67.80
2023-08-11T00:58:35.562Z,67.88
2023-08-11T01:01:01.968Z,68.08
2023-08-11T01:03:28.657Z,68.63
2023-08-11T01:06:09.495Z,68.44
2023-08-11T01:09:15.087Z,67.71
2023-08-11T01:11:53.172Z,68.14
2023-08-11T01:14:29.007Z,68.50
2023-08-11T01:16:56.881Z,68.59
2023-08-11T01:19:37.546Z,68.21
2023-08-11T01:22:05.507Z,68.39
2023-08-11T01:24:32.201Z,68.49
2023-08-11T01:26:58.758Z,68.81
2023-08-11T01:29:28.175Z,68.48
2023-08-11T01:31:54.544Z,67.85
2023-08-11T01:34:20.897Z,68.26
2023-08-11T01:36:47.263Z,68.31
2023-08-11T01:39:14.380Z,68.44
2023-08-11T01:41:40.821Z,68.15
2023-08-11T01:44:07.286Z,68.52
2023-08-11T01:46:34.165Z,68.12
2023-08-11T01:49:01.082Z,67.70
2023-08-11T01:51:27.676Z,68.42
2023-08-11T01:53:54.184Z,68.51
2023-08-11T01:56:25.242Z,69.31
2023-08-11T01:58:51.563Z,69.26
2023-08-11T02:01:17.918Z,69.62
2023-08-11T02:03:44.568Z,69.10
2023-08-11T02:06:10.991Z,69.11
2023-08-11T02:08:37.339Z,69.04
2023-08-11T02:11:04.489Z,69.25
2023-08-11T02:13:30.853Z,69.09
2023-08-11T02:15:57.279Z,69.67
2023-08-11T02:18:23.640Z,68.95
2023-08-11T02:20:50.000Z,68.67
2023-08-11T02:23:16.395Z,68.45
2023-08-11T02:25:42.734Z,68.50
2023-08-11T02:28:09.079Z,68.78
2023-08-11T02:30:35.448Z,68.66
2023-08-11T02:33:01.891Z,68.51
2023-08-11T02:35:28.249Z,68.24
2023-08-11T02:37:54.597Z,67.56
2023-08-11T02:40:21.295Z,67.33
2023-08-11T02:42:57.606Z,67.86
2023-08-11T02:45:25.042Z,67.65
2023-08-11T02:47:52.336Z,67.76
2023-08-11T02:50:18.995Z,68.36
2023-08-11T02:52:45.377Z,67.96
2023-08-11T02:55:12.553Z,67.75
2023-08-11T02:57:39.145Z,68.15
2023-08-11T03:00:13.883Z,68.32
2023-08-11T03:02:41.216Z,68.15
2023-08-11T03:05:08.576Z,67.82
2023-08-11T03:07:36.086Z,67.54
2023-08-11T03:10:02.453Z,67.58
2023-08-11T03:12:31.828Z,67.98
2023-08-11T03:14:58.446Z,68.85
2023-08-11T03:17:24.859Z,69.16
2023-08-11T03:19:51.259Z,68.64
2023-08-11T03:22:20.854Z,68.06
2023-08-11T03:24:47.338Z,69.07
2023-08-11T03:27:14.047Z,69.71
2023-08-11T03:29:40.856Z,69.58
2023-08-11T03:32:07.518Z,69.25
2023-08-11T03:34:34.218Z,70.07
2023-08-11T03:37:00.658Z,71.01
2023-08-11T03:39:27.160Z,70.79
2023-08-11T03:41:53.488Z,70.96
2023-08-11T03:44:19.860Z,71.10
2023-08-11T03:46:46.338Z,70.79
2023-08-11T03:49:13.010Z,70.65
2023-08-11T03:51:39.610Z,70.77
2023-08-11T03:54:06.053Z,70.52
2023-08-11T03:56:32.428Z,70.89
2023-08-11T03:58:58.831Z,70.16
2023-08-11T04:01:25.245Z,70.31
2023-08-11T04:03:51.658Z,70.91
2023-08-11T04:06:18.349Z,71.26
2023-08-11T04:08:45.293Z,71.17
2023-08-11T04:11:12.276Z,72.17
2023-08-11T04:13:38.619Z,72.06
2023-08-11T04:16:04.976Z,72.14
2023-08-11T04:18:31.353Z,71.78
2023-08-11T04:20:57.747Z,70.43
2023-08-11T04:23:24.162Z,69.91
2023-08-11T04:25:50.546Z,69.54
2023-08-11T04:28:17.008Z,70.04
2023-08-11T04:30:43.454Z,69.82
2023-08-11T04:33:09.858Z,69.41
2023-08-11T04:35:36.338Z,68.78
2023-08-11T04:38:02.837Z,69.06
2023-08-11T04:40:29.330Z,68.96
2023-08-11T04:42:55.702Z,68.79
2023-08-11T04:45:22.564Z,68.96
2023-08-11T04:47:49.007Z,68.68
2023-08-11T04:50:15.526Z,69.59
2023-08-11T04:52:43.790Z,68.92
2023-08-11T04:55:11.739Z,69.14
2023-08-11T04:57:38.226Z,68.40
2023-08-11T05:00:07.711Z,67.58
2023-08-11T05:02:34.370Z,67.50
2023-08-11T05:05:01.047Z,67.19
2023-08-11T05:07:27.416Z,68.00
2023-08-11T05:09:53.869Z,68.35
2023-08-11T05:12:20.283Z,68.89
2023-08-11T05:14:48.277Z,68.42
2023-08-11T05:17:15.039Z,69.08
2023-08-11T05:19:41.389Z,69.35
2023-08-11T05:22:07.934Z,69.95
2023-08-11T05:24:34.300Z,70.69
2023-08-11T05:27:00.723Z,69.96
2023-08-11T05:29:27.220Z,70.01
2023-08-11T05:31:53.659Z,70.21
2023-08-11T05:34:20.063Z,71.27
2023-08-11T05:36:46.769Z,70.80
2023-08-11T05:39:13.854Z,70.39
2023-08-11T05:41:40.272Z,70.46
2023-08-11T05:44:06.663Z,70.17
2023-08-11T05:46:33.451Z,69.37
2023-08-11T05:48:59.820Z,68.69
2023-08-11T05:51:26.462Z,68.04
2023-08-11T05:53:54.438Z,68.61
2023-08-11T05:56:21.167Z,68.43
2023-08-11T05:58:47.513Z,68.58
2023-08-11T06:01:13.922Z,68.27
2023-08-11T06:03:40.374Z,68.36
2023-08-11T06:06:06.785Z,67.05
2023-08-11T06:08:33.188Z,66.83
2023-08-11T06:10:59.574Z,67.25
2023-08-11T06:13:26.063Z,66.80
2023-08-11T06:15:52.537Z,66.66
2023-08-11T06:18:19.783Z,67.02
2023-08-11T06:20:48.272Z,66.74
2023-08-11T06:23:14.627Z,66.82
2023-08-11T06:25:41.265Z,66.32
2023-08-11T06:28:08.745Z,66.39
2023-08-11T06:30:35.465Z,66.67
2023-08-11T06:33:02.381Z,66.04
2023-08-11T06:35:28.885Z,65.49
2023-08-11T06:37:55.357Z,66.05
2023-08-11T06:40:21.738Z,66.39
2023-08-11T06:42:48.076Z,65.61
2023-08-11T06:45:14.626Z,66.94
2023-08-11T06:47:41.074Z,66.65
2023-08-11T06:50:07.706Z,66.30
2023-08-11T06:52:34.077Z,66.32
2023-08-11T06:55:00.484Z,67.06
2023-08-11T06:57:26.932Z,66.80
2023-08-11T06:59:53.445Z,66.17
2023-08-11T07:02:19.880Z,67.71
2023-08-11T07:04:46.344Z,67.60
2023-08-11T07:07:12.693Z,66.71
2023-08-11T07:09:39.133Z,66.82
2023-08-11T07:12:05.845Z,67.05
2023-08-11T07:14:32.194Z,65.97
2023-08-11T07:16:59.010Z,66.11
2023-08-11T07:19:25.432Z,66.60
2023-08-11T07:21:51.758Z,67.04
2023-08-11T07:24:18.116Z,67.25
2023-08-11T07:26:44.467Z,67.79
2023-08-11T07:29:11.181Z,66.88
2023-08-11T07:31:37.525Z,67.33
2023-08-11T07:34:04.346Z,67.44
2023-08-11T07:36:30.674Z,67.52
2023-08-11T07:39:09.032Z,67.50
2023-08-11T07:41:43.404Z,68.00
2023-08-11T07:44:10.109Z,67.13
2023-08-11T07:46:36.583Z,66.74
2023-08-11T07:49:03.008Z,67.08
2023-08-11T07:51:29.368Z,66.87
2023-08-11T07:53:55.824Z,67.75
2023-08-11T07:56:22.209Z,67.76
2023-08-11T07:58:48.932Z,67.88
2023-08-11T08:01:15.309Z,67.45
2023-08-11T08:03:41.935Z,67.29
2023-08-11T08:06:08.464Z,67.39
2023-08-11T08:08:34.951Z,67.68
2023-08-11T08:11:02.596Z,67.76
2023-08-11T08:13:32.554Z,67.50
2023-08-11T08:15:58.928Z,67.51
2023-08-11T08:18:25.491Z,67.77
2023-08-11T08:20:51.840Z,67.99
2023-08-11T08:23:18.677Z,67.27
2023-08-11T08:25:45.018Z,67.08
2023-08-11T08:28:12.171Z,66.56
2023-08-11T08:30:38.569Z,66.96
2023-08-11T08:33:07.088Z,65.95
2023-08-11T08:35:33.691Z,65.80
2023-08-11T08:38:00.095Z,65.58
2023-08-11T08:40:27.650Z,65.70
2023-08-11T08:42:54.297Z,65.57
2023-08-11T08:45:22.475Z,66.00
2023-08-11T08:47:50.461Z,65.73
2023-08-11T08:50:19.307Z,65.38
2023-08-11T08:52:45.785Z,64.06
2023-08-11T08:55:12.798Z,65.04
2023-08-11T08:57:40.114Z,64.05
2023-08-11T09:00:08.893Z,64.46
2023-08-11T09:02:35.370Z,66.33
2023-08-11T09:05:01.918Z,65.78
2023-08-11T09:07:28.802Z,64.61
2023-08-11T09:09:55.143Z,65.78
2023-08-11T09:12:21.519Z,65.16
2023-08-11T09:14:48.081Z,65.41
2023-08-11T09:17:14.486Z,63.96
2023-08-11T09:19:44.245Z,64.95
2023-08-11T09:22:11.885Z,65.65
2023-08-11T09:24:40.012Z,64.63
2023-08-11T09:27:07.347Z,64.43
2023-08-11T09:29:35.920Z,64.52
2023-08-11T09:32:03.510Z,64.93
2023-08-11T09:34:29.920Z,64.39
2023-08-11T09:36:56.269Z,64.56
2023-08-11T09:39:22.670Z,65.96
2023-08-11T09:41:49.705Z,65.04
2023-08-11T09:44:19.779Z,66.07
2023-08-11T09:46:47.345Z,65.21
2023-08-11T09:49:13.756Z,65.54
2023-08-11T09:51:41.590Z,64.39
2023-08-11T09:54:09.949Z,64.79
2023-08-11T09:56:43.566Z,65.14
2023-08-11T09:59:19.315Z,64.53
2023-08-11T10:01:46.972Z,64.25
2023-08-11T10:04:38.591Z,62.91
2023-08-11T10:07:11.040Z,63.51
2023-08-11T10:09:37.908Z,62.94
2023-08-11T10:12:05.567Z,63.88
2023-08-11T10:14:34.296Z,63.09
2023-08-11T10:17:00.835Z,62.54
2023-08-11T10:19:27.487Z,62.50
2023-08-11T10:21:54.670Z,62.79
2023-08-11T10:24:21.300Z,61.21
2023-08-11T10:26:48.191Z,61.33
2023-08-11T10:29:14.637Z,61.08
2023-08-11T10:31:55.980Z,60.62
2023-08-11T10:34:24.262Z,60.56
2023-08-11T10:36:51.718Z,59.61
2023-08-11T10:39:19.987Z,60.56
2023-08-11T10:41:46.833Z,58.61
2023-08-11T10:44:18.514Z,58.77
2023-08-11T10:46:46.298Z,58.32
2023-08-11T10:49:15.718Z,58.73
2023-08-11T10:51:42.831Z,58.64
2023-08-11T10:54:11.418Z,58.74
2023-08-11T10:56:39.590Z,57.10
2023-08-11T10:59:11.164Z,57.58
2023-08-11T11:01:38.784Z,56.48
2023-08-11T11:04:07.295Z,57.19
2023-08-11T11:06:34.737Z,57.39
2023-08-11T11:09:02.573Z,56.97
2023-08-11T11:11:28.910Z,56.35
2023-08-11T11:13:55.290Z,57.43
2023-08-11T11:16:22.150Z,58.07
2023-08-11T11:18:49.464Z,56.79
2023-08-11T11:21:16.723Z,56.12
2023-08-11T11:23:50.738Z,55.75
2023-08-11T11:26:25.425Z,54.46
2023-08-11T11:28:52.683Z,54.20
2023-08-11T11:31:20.105Z,53.99
2023-08-11T11:33:47.270Z,52.48
2023-08-11T11:36:16.539Z,52.71
2023-08-11T11:38:43.957Z,52.79
2023-08-11T11:41:20.158Z,53.13
2023-08-11T11:43:48.129Z,53.14
2023-08-11T11:46:18.093Z,52.80
2023-08-11T11:48:46.026Z,52.67
2023-08-11T11:51:16.774Z,52.26
2023-08-11T11:53:43.968Z,52.17
2023-08-11T11:56:15.999Z,51.90
2023-08-11T11:58:45.104Z,50.43
2023-08-11T12:01:20.456Z,50.31
2023-08-11T12:03:49.242Z,52.35
2023-08-11T12:06:19.096Z,51.50
2023-08-11T12:08:46.168Z,51.63
2023-08-11T12:11:13.879Z,49.96
2023-08-11T12:13:41.715Z,52.31
2023-08-11T12:16:09.670Z,53.87
2023-08-11T12:18:38.620Z,52.33
2023-08-11T12:21:05.428Z,51.94
2023-08-11T12:23:32.795Z,52.57
2023-08-11T12:25:59.855Z,52.36
2023-08-11T12:28:27.331Z,51.33
2023-08-11T12:30:53.782Z,51.38
2023-08-11T12:33:21.353Z,51.92
2023-08-11T12:35:49.132Z,52.93
2023-08-11T12:38:16.700Z,53.11
2023-08-11T12:40:44.514Z,53.92
2023-08-11T12:43:13.785Z,53.19
2023-08-11T12:45:41.375Z,53.69
2023-08-11T12:48:09.124Z,52.38
2023-08-11T12:50:37.181Z,52.77
2023-08-11T12:53:07.505Z,53.60
2023-08-11T12:55:34.920Z,51.74
2023-08-11T12:58:02.265Z,51.21
2023-08-11T13:00:28.989Z,50.76
2023-08-11T13:02:55.937Z,52.33
2023-08-11T13:05:22.396Z,51.84
2023-08-11T13:07:48.962Z,51.99
2023-08-11T13:10:15.431Z,51.99
2023-08-11T13:12:42.651Z,52.01
2023-08-11T13:15:09.932Z,50.23
2023-08-11T13:17:36.305Z,48.78
2023-08-11T13:20:07.476Z,47.92
2023-08-11T13:22:34.939Z,45.82
2023-08-11T13:25:01.337Z,45.52
2023-08-11T13:27:27.791Z,47.86
2023-08-11T13:29:54.137Z,47.23
2023-08-11T13:32:20.568Z,48.42
2023-08-11T13:34:46.944Z,47.34
2023-08-11T13:37:13.280Z,47.31
2023-08-11T13:39:39.661Z,48.30
2023-08-11T13:42:07.082Z,49.56
2023-08-11T13:44:33.715Z,48.18
2023-08-11T13:47:00.080Z,46.59
2023-08-11T13:49:26.488Z,48.22
2023-08-11T13:51:53.022Z,47.05
2023-08-11T13:54:19.353Z,46.83
2023-08-11T13:56:45.699Z,47.03
2023-08-11T13:59:12.068Z,46.53
2023-08-11T14:01:38.485Z,45.99
2023-08-11T14:04:05.334Z,47.54
2023-08-11T14:06:31.676Z,49.07
2023-08-11T14:08:59.544Z,48.15
2023-08-11T14:11:25.963Z,48.05
2023-08-11T14:13:52.308Z,48.46
2023-08-11T14:16:19.932Z,48.11
2023-08-11T14:18:46.391Z,48.64
2023-08-11T14:21:17.193Z,50.52
2023-08-11T14:23:43.549Z,51.20
2023-08-11T14:26:09.977Z,53.04
2023-08-11T14:28:37.107Z,51.63
2023-08-11T14:31:03.491Z,51.65
2023-08-11T14:33:29.947Z,51.61
2023-08-11T14:36:03.484Z,51.36
2023-08-11T14:38:30.144Z,51.21
2023-08-11T14:40:56.511Z,51.16
2023-08-11T14:43:22.895Z,50.54
2023-08-11T14:45:49.250Z,51.10
2023-08-11T14:48:15.670Z,51.19
2023-08-11T14:50:42.010Z,51.45
2023-08-11T14:53:08.442Z,50.76
2023-08-11T14:55:34.846Z,51.14
2023-08-11T14:58:01.280Z,51.21
2023-08-11T15:00:27.658Z,50.59
2023-08-11T15:02:54.145Z,50.27
2023-08-11T15:05:20.711Z,51.22
2023-08-11T15:07:47.421Z,50.85
2023-08-11T15:10:13.794Z,51.29
2023-08-11T15:12:40.211Z,51.30
2023-08-11T15:15:07.282Z,51.58
2023-08-11T15:17:33.710Z,51.10
2023-08-11T15:20:00.184Z,51.67
2023-08-11T15:22:26.569Z,51.22
2023-08-11T15:24:52.945Z,51.34
2023-08-11T15:27:20.043Z,50.68
2023-08-11T15:29:46.405Z,51.45
2023-08-11T15:32:13.089Z,51.58
2023-08-11T15:34:41.233Z,50.71
2023-08-11T15:37:07.647Z,52.02
2023-08-11T15:39:34.037Z,51.60
2023-08-11T15:42:00.489Z,52.14
2023-08-11T15:44:26.850Z,50.72
2023-08-11T15:46:53.380Z,51.94
2023-08-11T15:49:19.802Z,51.51
2023-08-11T15:51:46.249Z,50.91
2023-08-11T15:54:12.848Z,51.72
2023-08-11T15:56:39.247Z,52.29
2023-08-11T15:59:06.920Z,51.91
2023-08-11T16:01:33.509Z,52.74
2023-08-11T16:04:00.005Z,52.35
2023-08-11T16:06:26.425Z,52.39
2023-08-11T16:08:52.956Z,51.62
2023-08-11T16:11:19.372Z,51.57
2023-08-11T16:13:45.750Z,51.83
2023-08-11T16:16:12.467Z,52.06
2023-08-11T16:18:38.920Z,51.39
2023-08-11T16:21:06.558Z,53.20
2023-08-11T16:23:33.240Z,52.61
2023-08-11T16:25:59.868Z,52.36
2023-08-11T16:28:26.437Z,52.17
2023-08-11T16:30:54.388Z,52.92
2023-08-11T16:33:20.929Z,51.95
2023-08-11T16:35:47.954Z,52.70
2023-08-11T16:38:14.313Z,52.01
2023-08-11T16:40:40.638Z,52.52
2023-08-11T16:43:07.041Z,52.81
2023-08-11T16:45:33.885Z,51.87
2023-08-11T16:48:01.342Z,52.48
2023-08-11T16:50:27.774Z,52.63
2023-08-11T16:52:54.712Z,52.51
2023-08-11T16:55:22.160Z,52.55
2023-08-11T16:57:48.602Z,53.27
2023-08-11T17:00:15.888Z,53.97
2023-08-11T17:02:42.492Z,53.73
2023-08-11T17:05:09.211Z,53.86
2023-08-11T17:07:35.878Z,52.62
2023-08-11T17:10:02.383Z,53.64
2023-08-11T17:12:28.765Z,53.82
2023-08-11T17:14:55.305Z,53.35
2023-08-11T17:17:21.665Z,53.35
2023-08-11T17:19:48.378Z,52.99
2023-08-11T17:22:14.784Z,53.68
2023-08-11T17:24:41.223Z,53.53
2023-08-11T17:27:07.681Z,53.86
2023-08-11T17:29:34.191Z,53.55
2023-08-11T17:32:00.554Z,53.25
2023-08-11T17:34:26.985Z,53.52
2023-08-11T17:36:53.400Z,53.84
2023-08-11T17:39:19.841Z,54.56
2023-08-11T17:41:49.420Z,54.76
2023-08-11T17:44:15.818Z,55.61
2023-08-11T17:46:42.307Z,55.85
2023-08-11T17:49:08.877Z,55.60
2023-08-11T17:51:35.360Z,56.08
2023-08-11T17:54:09.604Z,55.70
2023-08-11T17:56:37.998Z,56.84
2023-08-11T17:59:05.794Z,56.58
2023-08-11T18:01:32.412Z,56.07
2023-08-11T18:04:05.186Z,56.38
2023-08-11T18:06:34.261Z,56.23
2023-08-11T18:09:01.463Z,56.51
2023-08-11T18:11:29.328Z,56.98
2023-08-11T18:13:55.986Z,57.92
2023-08-11T18:16:23.921Z,58.26
2023-08-11T18:18:50.312Z,57.67
2023-08-11T18:21:21.180Z,58.51
2023-08-11T18:23:48.145Z,59.30
2023-08-11T18:26:15.529Z,59.45
2023-08-11T18:28:41.868Z,59.45
2023-08-11T18:31:08.708Z,59.60
2023-08-11T18:33:35.380Z,60.11
2023-08-11T18:36:01.779Z,60.39
2023-08-11T18:38:28.281Z,60.38
2023-08-11T18:40:54.779Z,60.34
2023-08-11T18:43:21.319Z,60.58
2023-08-11T18:45:47.750Z,61.06
2023-08-11T18:48:15.858Z,61.92
2023-08-11T18:50:42.764Z,61.63
2023-08-11T18:53:09.159Z,62.06
2023-08-11T18:55:35.630Z,62.86
2023-08-11T18:58:02.084Z,63.46
2023-08-11T19:00:28.429Z,63.33
2023-08-11T19:02:54.926Z,63.95
2023-08-11T19:05:22.151Z,64.12
2023-08-11T19:07:48.502Z,64.18
2023-08-11T19:10:14.995Z,63.92
2023-08-11T19:12:41.587Z,64.29
2023-08-11T19:15:08.369Z,63.86
2023-08-11T19:17:34.743Z,63.67
2023-08-11T19:20:04.034Z,64.42
2023-08-11T19:22:31.213Z,64.07
2023-08-11T19:24:58.213Z,64.84
2023-08-11T19:27:26.999Z,64.89
2023-08-11T19:29:55.502Z,65.69
2023-08-11T19:32:21.887Z,65.25
2023-08-11T19:34:48.279Z,64.91
2023-08-11T19:37:15.350Z,64.29
2023-08-11T19:39:41.830Z,64.82
2023-08-11T19:42:08.501Z,64.90
2023-08-11T19:44:35.322Z,65.57
2023-08-11T19:47:01.725Z,65.08
2023-08-11T19:49:28.112Z,65.70
2023-08-11T19:51:54.728Z,65.37
2023-08-11T19:54:21.379Z,65.26
2023-08-11T19:56:47.875Z,65.76
2023-08-11T19:59:14.402Z,66.13
2023-08-11T20:01:40.827Z,65.97
2023-08-11T20:04:07.199Z,65.25
2023-08-11T20:06:33.766Z,66.18
2023-08-11T20:09:00.291Z,66.52
2023-08-11T20:11:27.231Z,66.37
2023-08-11T20:13:53.577Z,65.87
2023-08-11T20:16:19.973Z,66.39
2023-08-11T20:18:46.336Z,66.10
2023-08-11T20:21:13.736Z,65.83
2023-08-11T20:23:40.288Z,67.46
2023-08-11T20:26:06.792Z,66.55
2023-08-11T20:28:34.542Z,66.57
2023-08-11T20:31:02.652Z,66.87
2023-08-11T20:33:29.318Z,66.57
2023-08-11T20:35:59.535Z,66.26
2023-08-11T20:38:26.941Z,65.97
2023-08-11T20:40:57.984Z,66.57
2023-08-11T20:43:24.876Z,66.87
2023-08-11T20:45:51.386Z,67.03
2023-08-11T20:48:18.429Z,67.91
2023-08-11T20:50:46.087Z,66.67
2023-08-11T20:53:12.994Z,66.86
2023-08-11T20:55:39.393Z,67.46
2023-08-11T20:58:05.913Z,67.64
2023-08-11T21:00:32.406Z,67.58
2023-08-11T21:02:59.748Z,67.76
2023-08-11T21:05:26.121Z,67.71
2023-08-11T21:07:52.460Z,67.75
2023-08-11T21:10:19.027Z,68.25
2023-08-11T21:12:45.406Z,67.41
2023-08-11T21:15:13.379Z,68.16
2023-08-11T21:17:39.980Z,68.50
2023-08-11T21:20:07.377Z,67.35
2023-08-11T21:22:33.795Z,67.31
2023-08-11T21:25:02.600Z,67.54
2023-08-11T21:27:28.969Z,67.78
2023-08-11T21:29:55.824Z,68.10
2023-08-11T21:32:23.709Z,67.83
2023-08-11T21:34:51.352Z,67.61
2023-08-11T21:37:18.285Z,67.02
2023-08-11T21:39:44.787Z,68.26
2023-08-11T21:42:12.359Z,68.36
2023-08-11T21:44:38.805Z,67.80
2023-08-11T21:47:05.969Z,69.35
2023-08-11T21:49:32.490Z,68.83
2023-08-11T21:51:58.918Z,68.89
2023-08-11T21:54:25.856Z,68.67
2023-08-11T21:56:52.538Z,70.11
2023-08-11T21:59:18.945Z,69.23
2023-08-11T22:01:45.452Z,68.99
2023-08-11T22:04:11.837Z,69.40
2023-08-11T22:06:38.561Z,69.02
2023-08-11T22:09:05.676Z,69.07
2023-08-11T22:11:36.981Z,70.15
2023-08-11T22:14:04.510Z,69.81
2023-08-11T22:16:30.958Z,70.42
2023-08-11T22:18:57.378Z,70.07
2023-08-11T22:21:23.903Z,70.11
2023-08-11T22:23:50.705Z,69.40
2023-08-11T22:26:18.156Z,69.78
2023-08-11T22:28:44.583Z,68.46
2023-08-11T22:31:18.035Z,68.49
2023-08-11T22:33:44.669Z,69.09
2023-08-11T22:36:11.131Z,68.73
2023-08-11T22:38:38.550Z,68.87
2023-08-11T22:41:04.897Z,68.90
2023-08-11T22:43:31.245Z,69.33
2023-08-11T22:45:57.654Z,68.42
2023-08-11T22:48:24.060Z,67.75
2023-08-11T22:50:50.558Z,67.86
2023-08-11T22:53:18.422Z,67.95
2023-08-11T22:55:44.906Z,67.99
2023-08-11T22:58:11.269Z,68.93
2023-08-11T23:00:38.963Z,67.78
2023-08-11T23:03:07.205Z,67.74
2023-08-11T23:05:33.877Z,67.52
2023-08-11T23:08:01.334Z,67.97
2023-08-11T23:10:27.780Z,68.70
2023-08-11T23:12:54.152Z,67.88
2023-08-11T23:15:20.553Z,68.22
2023-08-11T23:17:47.027Z,66.86
2023-08-11T23:20:15.737Z,67.82
2023-08-11T23:22:42.139Z,68.58
2023-08-11T23:25:08.992Z,67.40
2023-08-11T23:27:35.338Z,67.93
2023-08-11T23:30:02.224Z,67.96
2023-08-11T23:32:30.529Z,67.49
2023-08-11T23:34:57.693Z,67.82
2023-08-11T23:37:25.046Z,68.00
2023-08-11T23:39:51.591Z,68.13
2023-08-11T23:42:17.986Z,67.96
2023-08-11T23:44:44.436Z,66.92
2023-08-11T23:47:11.512Z,67.31
2023-08-11T23:49:38.142Z,67.42
2023-08-11T23:52:05.832Z,67.14
2023-08-11T23:54:33.125Z,67.76
2023-08-11T23:56:59.529Z,67.25
2023-08-11T23:59:25.998Z,66.98
